Time;durP1;ratioP1;P1;durP2;ratioP2;P2;SDS_P1;SDS_P2;PMS_P1;PMS_P2;Temp;Humidity;BMP_temperature;BMP_pressure;BME280_temperature;BME280_humidity;BME280_pressure;Samples;Min_cycle;Max_cycle;Signal;HPM_P1;HPM_P2
2023/10/04 00:00:39;;;;;;;;;;;13.50;99.90;;;;;;5156991;27;19915;-45
2023/10/04 00:03:05;;;;;;;;;;;13.50;99.90;;;;;;5137166;27;19907;-46
2023/10/04 00:05:30;;;;;;;;;;;13.40;99.90;;;;;;5136924;27;19911;-44
2023/10/04 00:07:56;;;;;;;;;;;13.40;99.90;;;;;;5136917;27;19922;-44
2023/10/04 00:10:23;;;;;;;;;;;13.40;99.90;;;;;;5137009;27;19918;-44
2023/10/04 00:12:49;;;;;;;;;;;13.40;99.90;;;;;;5136839;27;19908;-44
2023/10/04 00:15:15;;;;;;;;;;;13.40;99.90;;;;;;5137071;27;19990;-45
2023/10/04 00:17:42;;;;;;;;;;;13.40;99.90;;;;;;5136782;27;20360;-45
2023/10/04 00:20:13;;;;;;;;;;;13.40;99.90;;;;;;5136914;27;19930;-45
2023/10/04 00:22:40;;;;;;;;;;;13.40;99.90;;;;;;5136769;27;19912;-45
2023/10/04 00:25:11;;;;;;;;;;;13.40;99.90;;;;;;5136670;27;19916;-45
2023/10/04 00:27:42;;;;;;;;;;;13.40;99.90;;;;;;5136739;27;19915;-45
2023/10/04 00:30:11;;;;;;;;;;;13.40;99.90;;;;;;5136591;27;19908;-46
2023/10/04 00:32:37;;;;;;;;;;;13.40;99.90;;;;;;5149518;27;19907;-44
2023/10/04 00:35:03;;;;;;;;;;;13.40;99.90;;;;;;5157017;27;19963;-45
2023/10/04 00:37:31;;;;;;;;;;;13.40;99.90;;;;;;5157087;27;20362;-43
2023/10/04 00:39:58;;;;;;;;;;;13.40;99.90;;;;;;5156602;27;20381;-43
2023/10/04 00:42:24;;;;;;;;;;;13.40;99.90;;;;;;5122587;27;20010;-45
2023/10/04 00:44:51;;;;;;;;;;;13.40;99.90;;;;;;5115709;28;19943;-44
2023/10/04 00:47:16;;;;;;;;;;;13.40;99.90;;;;;;5115723;28;19918;-45
2023/10/04 00:49:45;;;;;;;;;;;13.40;99.90;;;;;;5115648;28;20011;-46
2023/10/04 00:52:11;;;;;;;;;;;13.30;99.90;;;;;;5115574;28;19930;-45
2023/10/04 00:54:37;;;;;;;;;;;13.30;99.90;;;;;;5115503;28;19911;-44
2023/10/04 00:57:04;;;;;;;;;;;13.20;99.90;;;;;;5115651;28;19911;-44
2023/10/04 00:59:31;;;;;;;;;;;13.20;99.90;;;;;;5115402;28;19908;-45
2023/10/04 01:01:57;;;;;;;;;;;13.20;99.90;;;;;;5115589;28;19939;-45
2023/10/04 01:04:22;;;;;;;;;;;13.20;99.90;;;;;;5115483;28;19974;-45
2023/10/04 01:06:48;;;;;;;;;;;13.20;99.90;;;;;;5115196;28;19911;-45
2023/10/04 01:09:14;;;;;;;;;;;13.20;99.90;;;;;;5115414;28;20367;-45
2023/10/04 01:11:48;;;;;;;;;;;13.10;99.90;;;;;;5115230;28;20247;-45
2023/10/04 01:14:32;;;;;;;;;;;13.10;99.90;;;;;;5115333;28;20037;-43
2023/10/04 01:16:58;;;;;;;;;;;13.00;99.90;;;;;;5115185;28;19990;-46
2023/10/04 01:19:23;;;;;;;;;;;13.00;99.90;;;;;;5115168;28;20339;-44
2023/10/04 01:21:49;;;;;;;;;;;13.00;99.90;;;;;;5115057;28;19912;-45
2023/10/04 01:24:16;;;;;;;;;;;13.00;99.90;;;;;;5115085;28;19955;-46
2023/10/04 01:26:42;;;;;;;;;;;13.00;99.90;;;;;;5114872;28;19915;-45
2023/10/04 01:29:08;;;;;;;;;;;13.00;99.90;;;;;;5115004;28;19916;-44
2023/10/04 01:31:35;;;;;;;;;;;13.00;99.90;;;;;;5122818;27;19907;-45
2023/10/04 01:34:00;;;;;;;;;;;13.00;99.90;;;;;;5156293;27;20323;-45
2023/10/04 01:36:26;;;;;;;;;;;13.00;99.90;;;;;;5155818;27;20425;-44
2023/10/04 01:38:53;;;;;;;;;;;13.00;99.90;;;;;;5155962;27;20339;-45
2023/10/04 01:41:19;;;;;;;;;;;13.00;99.90;;;;;;5156023;27;19914;-45
2023/10/04 01:43:48;;;;;;;;;;;13.00;99.90;;;;;;5155808;27;20385;-45
2023/10/04 01:46:13;;;;;;;;;;;13.00;99.90;;;;;;5155835;27;19945;-45
2023/10/04 01:48:39;;;;;;;;;;;12.90;99.90;;;;;;5155719;27;19963;-45
2023/10/04 01:51:06;;;;;;;;;;;12.90;99.90;;;;;;5155033;27;19914;-44
2023/10/04 01:53:35;;;;;;;;;;;12.90;99.90;;;;;;5155620;27;19907;-45
2023/10/04 01:56:03;;;;;;;;;;;12.90;99.90;;;;;;5155802;27;19907;-45
2023/10/04 01:58:28;;;;;;;;;;;12.90;99.90;;;;;;5155615;27;19907;-45
2023/10/04 02:00:55;;;;;;;;;;;12.90;99.90;;;;;;5155306;27;19911;-45
2023/10/04 02:03:21;;;;;;;;;;;12.90;99.90;;;;;;5134775;27;19914;-45
2023/10/04 02:05:56;;;;;;;;;;;12.90;99.90;;;;;;5134690;27;19907;-46
2023/10/04 02:08:22;;;;;;;;;;;12.90;99.90;;;;;;5134677;27;20352;-45
2023/10/04 02:10:47;;;;;;;;;;;12.90;99.90;;;;;;5134616;27;20003;-45
2023/10/04 02:13:16;;;;;;;;;;;12.90;99.90;;;;;;5134493;27;19908;-44
2023/10/04 02:15:50;;;;;;;;;;;12.80;99.90;;;;;;5134504;27;19932;-45
2023/10/04 02:18:16;;;;;;;;;;;12.90;99.90;;;;;;5134549;27;20425;-45
2023/10/04 02:20:47;;;;;;;;;;;12.80;99.90;;;;;;5134171;27;19958;-45
2023/10/04 02:23:12;;;;;;;;;;;12.80;99.90;;;;;;5134641;27;19947;-46
2023/10/04 02:25:39;;;;;;;;;;;12.80;99.90;;;;;;5134108;27;19953;-45
2023/10/04 02:28:10;;;;;;;;;;;12.80;99.90;;;;;;5134234;27;19915;-45
2023/10/04 02:30:39;;;;;;;;;;;12.80;99.90;;;;;;5134243;27;20335;-46
2023/10/04 02:33:14;;;;;;;;;;;12.80;99.90;;;;;;5148671;27;19907;-44
2023/10/04 02:35:48;;;;;;;;;;;12.90;99.90;;;;;;5129105;27;19919;-46
2023/10/04 02:38:26;;;;;;;;;;;12.90;99.90;;;;;;5123436;27;19915;-45
2023/10/04 02:40:52;;;;;;;;;;;12.90;99.90;;;;;;5123933;27;19912;-46
2023/10/04 02:43:22;;;;;;;;;;;12.90;99.90;;;;;;5134163;27;19907;-45
2023/10/04 02:45:48;;;;;;;;;;;13.00;99.90;;;;;;5133974;27;20397;-45
2023/10/04 02:48:14;;;;;;;;;;;13.00;99.90;;;;;;5134161;27;19962;-45
2023/10/04 02:50:41;;;;;;;;;;;13.00;99.90;;;;;;5133976;27;19947;-45
2023/10/04 02:53:13;;;;;;;;;;;13.10;99.90;;;;;;5133892;27;19972;-48
2023/10/04 02:55:39;;;;;;;;;;;13.10;99.90;;;;;;5133880;27;19907;-45
2023/10/04 02:58:06;;;;;;;;;;;13.10;99.90;;;;;;5133826;27;20339;-45
2023/10/04 03:00:33;;;;;;;;;;;13.10;99.90;;;;;;5133753;27;19916;-46
2023/10/04 03:02:58;;;;;;;;;;;13.10;99.90;;;;;;5133719;27;20309;-47
2023/10/04 03:05:28;;;;;;;;;;;13.10;99.90;;;;;;5133656;27;19908;-48
2023/10/04 03:07:54;;;;;;;;;;;13.10;99.90;;;;;;5133668;27;20035;-45
2023/10/04 03:10:27;;;;;;;;;;;13.10;99.90;;;;;;5136831;27;19971;-45
2023/10/04 03:12:54;;;;;;;;;;;13.10;99.90;;;;;;5154380;27;19908;-44
2023/10/04 03:15:23;;;;;;;;;;;13.10;99.90;;;;;;5154106;27;19911;-45
2023/10/04 03:17:51;;;;;;;;;;;13.10;99.90;;;;;;5134269;27;20328;-45
2023/10/04 03:20:20;;;;;;;;;;;13.10;99.90;;;;;;5148578;27;19946;-45
2023/10/04 03:22:49;;;;;;;;;;;13.10;99.90;;;;;;5144581;27;19907;-45
2023/10/04 03:25:17;;;;;;;;;;;13.10;99.90;;;;;;5154428;27;19907;-46
2023/10/04 03:27:44;;;;;;;;;;;13.10;99.90;;;;;;5135228;27;20293;-44
2023/10/04 03:30:16;;;;;;;;;;;13.10;99.90;;;;;;5120373;28;19908;-44
2023/10/04 03:32:43;;;;;;;;;;;13.10;99.90;;;;;;5112952;28;19991;-46
2023/10/04 03:35:09;;;;;;;;;;;13.00;99.90;;;;;;5112711;28;20264;-45
2023/10/04 03:37:39;;;;;;;;;;;13.00;99.90;;;;;;5112812;28;20343;-44
2023/10/04 03:40:14;;;;;;;;;;;13.00;99.90;;;;;;5133281;28;19968;-46
2023/10/04 03:42:41;;;;;;;;;;;12.90;99.90;;;;;;5133498;28;19933;-45
2023/10/04 03:45:07;;;;;;;;;;;12.90;99.90;;;;;;5133393;28;19907;-46
2023/10/04 03:47:33;;;;;;;;;;;12.90;99.90;;;;;;5133174;28;19949;-46
2023/10/04 03:49:58;;;;;;;;;;;12.80;99.90;;;;;;5133341;28;19915;-45
2023/10/04 03:52:25;;;;;;;;;;;12.80;99.90;;;;;;5115702;28;20022;-45
2023/10/04 03:54:51;;;;;;;;;;;12.70;99.90;;;;;;5112826;28;19945;-46
2023/10/04 03:57:16;;;;;;;;;;;12.70;99.90;;;;;;5112856;28;20016;-45
2023/10/04 03:59:44;;;;;;;;;;;12.70;99.90;;;;;;5112598;28;19908;-45
2023/10/04 04:02:11;;;;;;;;;;;12.60;99.90;;;;;;5112822;28;19908;-45
2023/10/04 04:04:36;;;;;;;;;;;12.60;99.90;;;;;;5112673;28;19915;-46
2023/10/04 04:07:02;;;;;;;;;;;12.50;99.90;;;;;;5112528;28;19912;-47
2023/10/04 04:09:28;;;;;;;;;;;12.50;99.90;;;;;;5112667;28;20390;-47
2023/10/04 04:11:53;;;;;;;;;;;12.40;99.90;;;;;;5112392;28;19981;-45
2023/10/04 04:14:19;;;;;;;;;;;12.40;99.90;;;;;;5115463;27;19918;-45
2023/10/04 04:16:46;;;;;;;;;;;12.40;99.90;;;;;;5157548;27;19946;-47
2023/10/04 04:19:13;;;;;;;;;;;12.30;99.90;;;;;;5157618;27;19907;-45
2023/10/04 04:21:39;;;;;;;;;;;12.30;99.90;;;;;;5156642;27;19907;-45
2023/10/04 04:24:05;;;;;;;;;;;12.30;99.90;;;;;;5145948;27;19956;-46
2023/10/04 04:26:30;;;;;;;;;;;12.30;99.90;;;;;;5136668;27;20273;-45
2023/10/04 04:28:56;;;;;;;;;;;12.30;99.90;;;;;;5126423;27;20445;-46
2023/10/04 04:31:22;;;;;;;;;;;12.30;99.90;;;;;;5145384;27;19930;-46
2023/10/04 04:33:48;;;;;;;;;;;12.30;99.90;;;;;;5157211;27;19907;-46
2023/10/04 04:36:25;;;;;;;;;;;12.30;99.90;;;;;;5132299;27;20378;-47
2023/10/04 04:38:53;;;;;;;;;;;12.30;99.90;;;;;;5115934;28;19947;-45
2023/10/04 04:41:25;;;;;;;;;;;12.30;99.90;;;;;;5115901;28;19934;-46
2023/10/04 04:43:51;;;;;;;;;;;12.30;99.90;;;;;;5116323;28;20000;-45
2023/10/04 04:46:18;;;;;;;;;;;12.40;99.90;;;;;;5115797;28;19992;-46
2023/10/04 04:48:43;;;;;;;;;;;12.30;99.90;;;;;;5132967;27;19923;-45
2023/10/04 04:51:12;;;;;;;;;;;12.30;99.90;;;;;;5136303;27;20270;-44
2023/10/04 04:53:45;;;;;;;;;;;12.30;99.90;;;;;;5125739;27;19914;-45
2023/10/04 04:56:15;;;;;;;;;;;12.30;99.90;;;;;;5115727;28;19919;-44
2023/10/04 04:58:41;;;;;;;;;;;12.30;99.90;;;;;;5115462;28;19907;-46
2023/10/04 05:01:13;;;;;;;;;;;12.30;99.90;;;;;;5115646;28;19955;-47
2023/10/04 05:03:42;;;;;;;;;;;12.30;99.90;;;;;;5141032;27;20328;-45
2023/10/04 05:06:16;;;;;;;;;;;12.30;99.90;;;;;;5137335;27;20370;-47
2023/10/04 05:08:42;;;;;;;;;;;12.30;99.90;;;;;;5156486;27;19971;-45
2023/10/04 05:11:07;;;;;;;;;;;12.30;99.90;;;;;;5156475;27;19907;-45
2023/10/04 05:13:33;;;;;;;;;;;12.40;99.90;;;;;;5142569;27;19964;-47
2023/10/04 05:16:00;;;;;;;;;;;12.40;99.90;;;;;;5134828;27;19911;-44
2023/10/04 05:18:26;;;;;;;;;;;12.40;99.90;;;;;;5134467;27;19907;-46
2023/10/04 05:20:55;;;;;;;;;;;12.40;99.90;;;;;;5134747;27;20336;-46
2023/10/04 05:23:22;;;;;;;;;;;12.40;99.90;;;;;;5136259;27;19908;-46
2023/10/04 05:25:48;;;;;;;;;;;12.30;99.90;;;;;;5155079;27;19907;-45
2023/10/04 05:28:13;;;;;;;;;;;12.30;99.90;;;;;;5156229;27;20005;-45
2023/10/04 05:30:41;;;;;;;;;;;12.30;99.90;;;;;;5153800;27;20444;-45
2023/10/04 05:33:07;;;;;;;;;;;12.30;99.90;;;;;;5140314;27;19911;-46
2023/10/04 05:35:34;;;;;;;;;;;12.30;99.90;;;;;;5141305;27;20425;-45
2023/10/04 05:38:02;;;;;;;;;;;12.30;99.90;;;;;;5140961;27;20273;-45
2023/10/04 05:40:28;;;;;;;;;;;12.20;99.90;;;;;;5136252;27;20335;-45
2023/10/04 05:42:54;;;;;;;;;;;12.20;99.90;;;;;;5143215;27;19954;-46
2023/10/04 05:45:23;;;;;;;;;;;12.20;99.90;;;;;;5145846;27;19907;-44
2023/10/04 05:47:50;;;;;;;;;;;12.20;99.90;;;;;;5139272;27;19972;-45
2023/10/04 05:50:22;;;;;;;;;;;12.20;99.90;;;;;;5145717;27;19963;-46
2023/10/04 05:52:51;;;;;;;;;;;12.20;99.90;;;;;;5135910;27;19912;-45
2023/10/04 05:55:17;;;;;;;;;;;12.20;99.90;;;;;;5142448;27;19922;-45
2023/10/04 05:57:46;;;;;;;;;;;12.30;99.90;;;;;;5134887;27;19916;-46
2023/10/04 06:03:07;;;;;;;;;;;12.30;99.90;;;;;;5142487;27;19914;-45
2023/10/04 06:05:34;;;;;;;;;;;12.30;99.90;;;;;;5135694;27;19915;-46
2023/10/04 06:08:05;;;;;;;;;;;12.30;99.90;;;;;;5145066;27;19919;-45
2023/10/04 06:10:31;;;;;;;;;;;12.30;99.90;;;;;;5144685;27;19918;-46
2023/10/04 06:12:57;;;;;;;;;;;12.30;99.90;;;;;;5130801;27;20274;-45
2023/10/04 06:15:24;;;;;;;;;;;12.30;99.90;;;;;;5142191;27;19913;-46
2023/10/04 06:17:50;;;;;;;;;;;12.40;99.90;;;;;;5144959;27;20006;-46
2023/10/04 06:20:50;;;;;;;;;;;12.40;99.90;;;;;;5145058;27;19986;-45
2023/10/04 06:23:09;;;;;;;;;;;12.40;99.90;;;;;;5131955;27;19911;-45
2023/10/04 06:25:41;;;;;;;;;;;12.50;99.90;;;;;;5146531;27;19907;-45
2023/10/04 06:28:07;;;;;;;;;;;12.60;99.90;;;;;;5145755;27;19919;-45
2023/10/04 06:30:33;;;;;;;;;;;12.60;99.90;;;;;;5141655;27;20382;-46
2023/10/04 06:33:00;;;;;;;;;;;12.70;99.90;;;;;;5139970;27;20419;-44
2023/10/04 06:35:26;;;;;;;;;;;12.70;99.90;;;;;;5133756;27;20293;-44
2023/10/04 06:37:53;;;;;;;;;;;12.80;99.90;;;;;;5133836;27;20018;-46
2023/10/04 06:40:22;;;;;;;;;;;12.80;99.90;;;;;;5134263;27;19908;-44
2023/10/04 06:42:51;;;;;;;;;;;12.80;99.90;;;;;;5133981;27;19947;-45
2023/10/04 06:45:18;;;;;;;;;;;12.90;99.90;;;;;;5134079;27;19907;-45
2023/10/04 06:47:44;;;;;;;;;;;12.90;99.90;;;;;;5133969;27;19926;-45
2023/10/04 06:50:13;;;;;;;;;;;12.90;99.90;;;;;;5134159;27;19914;-45
2023/10/04 06:52:39;;;;;;;;;;;12.90;99.90;;;;;;5139223;27;19915;-45
2023/10/04 06:55:08;;;;;;;;;;;12.90;99.90;;;;;;5139345;27;19918;-48
2023/10/04 06:57:33;;;;;;;;;;;12.90;99.90;;;;;;5139458;27;20282;-47
2023/10/04 06:59:59;;;;;;;;;;;13.00;99.90;;;;;;5146244;27;19915;-46
2023/10/04 07:02:24;;;;;;;;;;;13.00;99.90;;;;;;5144791;27;19907;-45
2023/10/04 07:04:50;;;;;;;;;;;13.00;99.90;;;;;;5142662;27;19951;-45
2023/10/04 07:07:15;;;;;;;;;;;13.00;99.90;;;;;;5145212;27;19923;-46
2023/10/04 07:09:41;;;;;;;;;;;13.00;99.90;;;;;;5144886;27;20330;-45
2023/10/04 07:12:07;;;;;;;;;;;13.10;99.90;;;;;;5133098;27;20453;-45
2023/10/04 07:14:33;;;;;;;;;;;13.10;99.90;;;;;;5119460;28;19961;-46
2023/10/04 07:16:59;;;;;;;;;;;13.10;99.90;;;;;;5127157;28;19907;-45
2023/10/04 07:19:28;;;;;;;;;;;13.10;99.90;;;;;;5113083;28;19953;-45
2023/10/04 07:21:55;;;;;;;;;;;13.20;99.90;;;;;;5112959;28;19915;-45
2023/10/04 07:24:20;;;;;;;;;;;13.20;99.90;;;;;;5113120;28;19908;-45
2023/10/04 07:26:46;;;;;;;;;;;13.10;99.90;;;;;;5112817;28;19985;-45
2023/10/04 07:29:11;;;;;;;;;;;13.10;99.90;;;;;;5118460;28;19959;-46
2023/10/04 07:31:37;;;;;;;;;;;13.10;99.90;;;;;;5129887;28;20002;-47
2023/10/04 07:34:02;;;;;;;;;;;13.20;99.90;;;;;;5116061;28;20381;-46
2023/10/04 07:36:28;;;;;;;;;;;13.20;99.90;;;;;;5112043;28;20003;-47
2023/10/04 07:38:53;;;;;;;;;;;13.20;99.90;;;;;;5113720;27;20251;-45
2023/10/04 07:41:20;;;;;;;;;;;13.20;99.90;;;;;;5146731;27;20371;-46
2023/10/04 07:43:46;;;;;;;;;;;13.30;99.90;;;;;;5145748;27;19915;-45
2023/10/04 07:46:11;;;;;;;;;;;13.40;99.90;;;;;;5128441;28;20254;-45
2023/10/04 07:48:37;;;;;;;;;;;13.40;99.90;;;;;;5135705;27;20282;-45
2023/10/04 07:51:02;;;;;;;;;;;13.50;99.90;;;;;;5138020;27;19960;-45
2023/10/04 07:53:28;;;;;;;;;;;13.50;99.90;;;;;;5151626;27;20172;-45
2023/10/04 07:55:53;;;;;;;;;;;13.60;99.90;;;;;;5152108;27;19911;-46
2023/10/04 07:58:19;;;;;;;;;;;13.70;99.90;;;;;;5144245;27;19912;-45
2023/10/04 08:00:45;;;;;;;;;;;13.80;99.90;;;;;;5151707;27;20362;-47
2023/10/04 08:03:10;;;;;;;;;;;13.90;99.90;;;;;;5148629;27;20411;-46
2023/10/04 08:05:36;;;;;;;;;;;14.00;99.90;;;;;;5144837;27;19957;-47
2023/10/04 08:08:02;;;;;;;;;;;14.00;99.90;;;;;;5149026;27;20419;-45
2023/10/04 08:10:29;;;;;;;;;;;14.10;99.90;;;;;;5142193;27;19911;-46
2023/10/04 08:12:56;;;;;;;;;;;14.10;99.90;;;;;;5126024;27;19911;-48
2023/10/04 08:15:23;;;;;;;;;;;14.20;99.90;;;;;;5142937;27;19918;-45
2023/10/04 08:17:49;;;;;;;;;;;14.30;99.90;;;;;;5138359;27;19911;-46
2023/10/04 08:20:15;;;;;;;;;;;14.30;99.90;;;;;;5136476;27;19936;-46
2023/10/04 08:22:41;;;;;;;;;;;14.40;99.90;;;;;;5136154;27;19911;-45
2023/10/04 08:25:08;;;;;;;;;;;14.40;99.90;;;;;;5126958;27;19919;-45
2023/10/04 08:27:34;;;;;;;;;;;14.50;99.90;;;;;;5124896;27;19915;-45
2023/10/04 08:30:03;;;;;;;;;;;14.60;99.90;;;;;;5129793;27;19908;-45
2023/10/04 08:32:29;;;;;;;;;;;14.60;99.90;;;;;;5128758;27;19918;-46
2023/10/04 08:34:55;;;;;;;;;;;14.70;99.90;;;;;;5131481;27;19919;-45
2023/10/04 08:37:20;;;;;;;;;;;14.80;99.90;;;;;;5131036;27;19918;-46
2023/10/04 08:39:46;;;;;;;;;;;14.80;99.90;;;;;;5114646;28;20312;-45
2023/10/04 08:42:11;;;;;;;;;;;14.90;99.90;;;;;;5129969;27;19911;-46
2023/10/04 08:44:37;;;;;;;;;;;14.90;99.90;;;;;;5135602;27;19914;-45
2023/10/04 08:47:05;;;;;;;;;;;14.90;99.90;;;;;;5134665;27;20103;-45
2023/10/04 08:49:42;;;;;;;;;;;15.00;99.90;;;;;;5149398;27;19954;-45
2023/10/04 08:52:13;;;;;;;;;;;15.10;99.90;;;;;;5136411;27;20396;-46
2023/10/04 08:54:40;;;;;;;;;;;15.10;99.90;;;;;;5135127;27;19916;-46
2023/10/04 08:57:13;;;;;;;;;;;15.20;99.90;;;;;;5135410;27;20442;-45
2023/10/04 08:59:40;;;;;;;;;;;15.20;99.90;;;;;;5135645;27;19918;-45
2023/10/04 09:02:08;;;;;;;;;;;15.30;99.90;;;;;;5135592;27;20417;-45
2023/10/04 09:04:35;;;;;;;;;;;15.30;99.90;;;;;;5141441;27;19915;-45
2023/10/04 09:07:02;;;;;;;;;;;15.30;99.90;;;;;;5148970;27;19911;-45
2023/10/04 09:09:31;;;;;;;;;;;15.40;99.90;;;;;;5131717;27;20479;-45
2023/10/04 09:11:56;;;;;;;;;;;15.50;99.90;;;;;;5133721;27;19911;-46
2023/10/04 09:14:22;;;;;;;;;;;15.50;99.90;;;;;;5128412;27;19914;-45
2023/10/04 09:17:02;;;;;;;;;;;15.60;99.90;;;;;;5134957;27;19995;-44
2023/10/04 09:19:27;;;;;;;;;;;15.70;99.90;;;;;;5135420;27;19907;-46
2023/10/04 09:21:53;;;;;;;;;;;15.80;99.90;;;;;;5131154;27;19990;-45
2023/10/04 09:24:20;;;;;;;;;;;15.80;99.90;;;;;;5133608;27;20386;-45
2023/10/04 09:26:49;;;;;;;;;;;15.90;99.90;;;;;;5120595;27;20279;-45
2023/10/04 09:29:15;;;;;;;;;;;15.90;99.90;;;;;;5129102;27;19923;-45
2023/10/04 09:31:50;;;;;;;;;;;15.90;99.90;;;;;;5135243;27;19937;-46
2023/10/04 09:34:16;;;;;;;;;;;16.00;99.90;;;;;;5155357;27;19911;-46
2023/10/04 09:36:42;;;;;;;;;;;16.10;99.90;;;;;;5148421;27;19964;-45
2023/10/04 09:39:09;;;;;;;;;;;16.20;99.90;;;;;;5135360;27;19911;-48
2023/10/04 09:41:47;;;;;;;;;;;16.20;99.90;;;;;;5135059;27;19915;-45
2023/10/04 09:44:29;;;;;;;;;;;16.30;99.90;;;;;;5134482;27;20298;-44
2023/10/04 09:47:00;;;;;;;;;;;16.40;99.90;;;;;;5134608;27;20278;-47
2023/10/04 09:49:31;;;;;;;;;;;16.40;99.90;;;;;;5135085;27;19919;-47
2023/10/04 09:51:59;;;;;;;;;;;16.50;99.90;;;;;;5135225;27;19998;-45
2023/10/04 09:54:26;;;;;;;;;;;16.50;99.90;;;;;;5135031;27;19955;-45
2023/10/04 09:56:53;;;;;;;;;;;16.60;99.90;;;;;;5135001;27;19942;-45
2023/10/04 09:59:19;;;;;;;;;;;16.70;99.90;;;;;;5135154;27;19907;-45
2023/10/04 10:01:52;;;;;;;;;;;16.80;99.90;;;;;;5134744;27;19960;-45
2023/10/04 10:04:22;;;;;;;;;;;16.90;99.90;;;;;;5134593;27;19942;-45
2023/10/04 10:07:10;;;;;;;;;;;17.00;99.90;;;;;;5134340;27;19915;-44
2023/10/04 10:09:54;;;;;;;;;;;17.00;99.90;;;;;;5112552;28;19923;-49
2023/10/04 10:12:21;;;;;;;;;;;17.10;99.90;;;;;;5121964;27;19911;-45
2023/10/04 10:14:48;;;;;;;;;;;17.20;99.90;;;;;;5133421;27;19917;-45
2023/10/04 10:17:13;;;;;;;;;;;17.20;99.90;;;;;;5134266;27;19919;-45
2023/10/04 10:19:39;;;;;;;;;;;17.20;99.90;;;;;;5132968;27;19912;-47
2023/10/04 10:22:16;;;;;;;;;;;17.30;99.90;;;;;;5133904;27;20013;-44
2023/10/04 10:25:11;;;;;;;;;;;17.40;99.90;;;;;;5133914;27;19907;-46
2023/10/04 10:27:36;;;;;;;;;;;17.40;99.90;;;;;;5112419;28;20279;-44
2023/10/04 10:30:05;;;;;;;;;;;17.30;99.90;;;;;;5112914;28;19912;-46
2023/10/04 10:32:30;;;;;;;;;;;17.20;99.90;;;;;;5112122;27;19935;-49
2023/10/04 10:35:06;;;;;;;;;;;17.10;99.90;;;;;;5112750;28;19976;-46
2023/10/04 10:37:38;;;;;;;;;;;17.10;99.90;;;;;;5118230;27;20330;-46
2023/10/04 10:40:09;;;;;;;;;;;17.00;99.90;;;;;;5133908;27;20286;-47
2023/10/04 10:42:53;;;;;;;;;;;17.00;99.90;;;;;;5133340;27;19950;-45
2023/10/04 10:45:28;;;;;;;;;;;16.90;99.90;;;;;;5133331;27;19943;-47
2023/10/04 10:47:56;;;;;;;;;;;16.90;99.90;;;;;;5143757;27;19923;-45
2023/10/04 10:50:52;;;;;;;;;;;16.90;99.90;;;;;;5127613;27;20750;-44
2023/10/04 10:53:18;;;;;;;;;;;16.90;99.90;;;;;;5107226;27;20366;-44
2023/10/04 10:55:43;;;;;;;;;;;16.90;99.90;;;;;;5127010;27;19954;-46
2023/10/04 10:58:09;;;;;;;;;;;16.90;99.90;;;;;;5133276;27;19911;-45
2023/10/04 11:00:35;;;;;;;;;;;16.90;99.90;;;;;;5129784;27;20510;-45
2023/10/04 11:03:01;;;;;;;;;;;16.80;99.90;;;;;;5126897;27;19957;-46
2023/10/04 11:05:26;;;;;;;;;;;16.90;99.90;;;;;;5131769;27;19908;-45
2023/10/04 11:07:53;;;;;;;;;;;16.90;99.90;;;;;;5121032;27;19916;-46
2023/10/04 11:10:20;;;;;;;;;;;16.90;99.90;;;;;;5116408;27;19918;-46
2023/10/04 11:12:46;;;;;;;;;;;16.90;99.90;;;;;;5112608;28;19926;-45
2023/10/04 11:15:12;;;;;;;;;;;16.90;99.90;;;;;;5126940;28;19915;-44
2023/10/04 11:17:38;;;;;;;;;;;16.90;99.90;;;;;;5132489;27;19918;-45
2023/10/04 11:20:09;;;;;;;;;;;16.80;99.90;;;;;;5132958;28;19916;-44
2023/10/04 11:22:36;;;;;;;;;;;16.80;99.90;;;;;;5133426;27;19916;-45
2023/10/04 11:25:02;;;;;;;;;;;16.80;99.90;;;;;;5126522;27;19912;-46
2023/10/04 11:27:27;;;;;;;;;;;16.80;99.90;;;;;;5134876;27;19923;-45
2023/10/04 11:29:53;;;;;;;;;;;16.80;99.90;;;;;;5138245;27;20298;-45
2023/10/04 11:32:18;;;;;;;;;;;16.90;99.90;;;;;;5137957;27;19911;-50
2023/10/04 11:34:44;;;;;;;;;;;16.90;99.90;;;;;;5130290;27;20026;-44
2023/10/04 11:37:10;;;;;;;;;;;17.00;99.90;;;;;;5151495;27;20390;-45
2023/10/04 11:39:36;;;;;;;;;;;17.00;99.90;;;;;;5143048;27;19922;-44
2023/10/04 11:42:05;;;;;;;;;;;17.10;99.90;;;;;;5137467;27;19930;-48
2023/10/04 11:44:35;;;;;;;;;;;17.10;99.90;;;;;;5128487;27;19936;-44
2023/10/04 11:47:03;;;;;;;;;;;17.10;99.90;;;;;;5126162;27;19942;-45
2023/10/04 11:49:32;;;;;;;;;;;17.10;99.90;;;;;;5118976;27;20445;-46
2023/10/04 11:52:00;;;;;;;;;;;17.10;99.90;;;;;;5127719;27;19911;-46
2023/10/04 11:54:44;;;;;;;;;;;17.20;99.90;;;;;;5134574;27;20266;-47
2023/10/04 11:57:09;;;;;;;;;;;17.20;99.90;;;;;;5130496;27;19919;-44
2023/10/04 11:59:35;;;;;;;;;;;17.20;99.90;;;;;;5116157;28;19908;-46
2023/10/04 12:02:01;;;;;;;;;;;17.20;99.90;;;;;;5128308;27;20056;-45
2023/10/04 12:04:31;;;;;;;;;;;17.20;99.90;;;;;;5137206;27;19911;-44
2023/10/04 12:06:57;;;;;;;;;;;17.20;99.90;;;;;;5137092;27;20281;-44
2023/10/04 12:09:23;;;;;;;;;;;17.20;99.90;;;;;;5136937;27;20120;-44
2023/10/04 12:11:49;;;;;;;;;;;17.20;99.90;;;;;;5125445;27;19915;-46
2023/10/04 12:14:15;;;;;;;;;;;17.10;99.90;;;;;;5143432;27;19908;-46
2023/10/04 12:16:44;;;;;;;;;;;17.10;99.90;;;;;;5136710;27;19938;-45
2023/10/04 12:19:10;;;;;;;;;;;17.10;99.90;;;;;;5137098;27;19990;-44
2023/10/04 12:21:37;;;;;;;;;;;17.00;99.90;;;;;;5135662;27;19912;-48
2023/10/04 12:24:03;;;;;;;;;;;17.00;99.90;;;;;;5133342;27;19912;-45
2023/10/04 12:26:30;;;;;;;;;;;17.00;99.90;;;;;;5130961;27;19919;-47
2023/10/04 12:28:56;;;;;;;;;;;17.00;99.90;;;;;;5136711;27;19915;-45
2023/10/04 12:31:22;;;;;;;;;;;17.00;99.90;;;;;;5135663;27;20281;-47
2023/10/04 12:33:47;;;;;;;;;;;17.00;99.90;;;;;;5135131;27;19911;-47
2023/10/04 12:36:13;;;;;;;;;;;17.00;99.90;;;;;;5121685;27;19928;-45
2023/10/04 12:38:38;;;;;;;;;;;17.00;99.90;;;;;;5135639;27;19911;-45
2023/10/04 12:41:05;;;;;;;;;;;17.10;99.90;;;;;;5135765;27;19911;-44
2023/10/04 12:43:31;;;;;;;;;;;17.20;99.90;;;;;;5135418;27;20344;-45
2023/10/04 12:45:57;;;;;;;;;;;17.20;99.90;;;;;;5135626;27;19907;-46
2023/10/04 12:48:22;;;;;;;;;;;17.20;99.90;;;;;;5133823;27;20378;-48
2023/10/04 12:50:49;;;;;;;;;;;17.30;99.90;;;;;;5135402;27;19912;-45
2023/10/04 12:53:15;;;;;;;;;;;17.30;99.90;;;;;;5135522;27;19918;-46
2023/10/04 12:55:45;;;;;;;;;;;17.30;99.90;;;;;;5137534;27;19933;-45
2023/10/04 12:58:10;;;;;;;;;;;17.30;99.90;;;;;;5153151;27;20381;-45
2023/10/04 13:00:36;;;;;;;;;;;17.30;99.90;;;;;;5156339;27;19950;-45
2023/10/04 13:03:02;;;;;;;;;;;17.20;99.90;;;;;;5137992;27;20373;-45
2023/10/04 13:05:29;;;;;;;;;;;17.10;99.90;;;;;;5135219;27;19937;-47
2023/10/04 13:07:55;;;;;;;;;;;17.10;99.90;;;;;;5135390;27;19923;-47
2023/10/04 13:10:22;;;;;;;;;;;17.10;99.90;;;;;;5136137;27;19976;-45
2023/10/04 13:12:48;;;;;;;;;;;17.20;99.90;;;;;;5135432;27;19958;-45
2023/10/04 13:15:14;;;;;;;;;;;17.30;99.90;;;;;;5135686;27;19907;-44
2023/10/04 13:17:39;;;;;;;;;;;17.40;99.90;;;;;;5135271;27;19968;-45
2023/10/04 13:20:09;;;;;;;;;;;17.60;99.90;;;;;;5135079;27;19911;-45
2023/10/04 13:22:34;;;;;;;;;;;17.60;99.90;;;;;;5135313;27;19919;-50
2023/10/04 13:25:06;;;;;;;;;;;17.70;99.90;;;;;;5135351;27;20352;-44
2023/10/04 13:27:32;;;;;;;;;;;17.70;99.90;;;;;;5140705;27;19916;-45
2023/10/04 13:29:58;;;;;;;;;;;17.70;99.90;;;;;;5135442;27;20321;-45
2023/10/04 13:32:23;;;;;;;;;;;17.70;99.90;;;;;;5135035;27;19958;-44
2023/10/04 13:34:49;;;;;;;;;;;17.70;99.90;;;;;;5134882;27;20006;-46
2023/10/04 13:37:15;;;;;;;;;;;17.60;99.90;;;;;;5134106;27;19953;-48
2023/10/04 13:39:41;;;;;;;;;;;17.60;99.90;;;;;;5135019;27;19907;-45
2023/10/04 13:42:07;;;;;;;;;;;17.60;99.90;;;;;;5133607;27;20323;-46
2023/10/04 13:44:32;;;;;;;;;;;17.50;99.90;;;;;;5126279;27;19954;-45
2023/10/04 13:46:58;;;;;;;;;;;17.40;99.90;;;;;;5126328;27;19915;-45
2023/10/04 13:49:26;;;;;;;;;;;17.40;99.90;;;;;;5116396;27;19923;-46
2023/10/04 13:51:53;;;;;;;;;;;17.40;99.90;;;;;;5118137;27;20384;-44
2023/10/04 13:54:18;;;;;;;;;;;17.30;99.90;;;;;;5134824;27;19908;-46
2023/10/04 13:56:44;;;;;;;;;;;17.20;99.90;;;;;;5134401;27;20400;-45
2023/10/04 13:59:09;;;;;;;;;;;17.20;99.90;;;;;;5134783;27;19999;-44
2023/10/04 14:01:35;;;;;;;;;;;17.20;99.90;;;;;;5120723;27;19912;-46
2023/10/04 14:04:01;;;;;;;;;;;17.20;99.90;;;;;;5132579;27;19922;-48
2023/10/04 14:06:26;;;;;;;;;;;17.20;99.90;;;;;;5139000;27;19911;-46
2023/10/04 14:08:52;;;;;;;;;;;17.20;99.90;;;;;;5125763;27;20336;-45
2023/10/04 14:11:17;;;;;;;;;;;17.20;99.90;;;;;;5133953;27;19956;-45
2023/10/04 14:13:44;;;;;;;;;;;17.20;99.90;;;;;;5132996;27;19907;-44
2023/10/04 14:16:09;;;;;;;;;;;17.10;99.90;;;;;;5132920;27;19964;-46
2023/10/04 14:18:35;;;;;;;;;;;17.10;99.90;;;;;;5124939;27;19908;-43
2023/10/04 14:21:00;;;;;;;;;;;17.10;99.90;;;;;;5132259;27;20010;-46